createdAt,value
2022-08-07T00:00:18.678Z,11.27
2022-08-07T00:05:05.771Z,9.43
2022-08-07T00:10:04.673Z,9.55
2022-08-07T00:14:53.006Z,11.20
2022-08-07T00:20:02.566Z,9.43
2022-08-07T00:24:41.467Z,10.23
2022-08-07T00:29:31.427Z,9.93
2022-08-07T00:34:15.679Z,12.80
2022-08-07T00:39:05.551Z,9.60
2022-08-07T00:43:59.450Z,8.68
2022-08-07T00:48:49.957Z,13.00
2022-08-07T00:53:38.451Z,11.20
2022-08-07T00:58:23.053Z,10.45
2022-08-07T01:03:09.446Z,10.95
2022-08-07T01:07:56.429Z,11.23
2022-08-07T01:12:53.343Z,12.27
2022-08-07T01:17:38.335Z,9.25
2022-08-07T01:22:29.372Z,11.18
2022-08-07T01:27:19.649Z,12.35
2022-08-07T01:32:11.911Z,9.18
2022-08-07T01:36:57.949Z,10.07
2022-08-07T01:42:07.205Z,11.23
2022-08-07T01:46:48.401Z,10.03
2022-08-07T01:52:03.473Z,9.30
2022-08-07T01:56:49.320Z,9.83
2022-08-07T02:02:01.691Z,13.07
2022-08-07T02:06:42.681Z,11.77
2022-08-07T02:11:57.755Z,11.50
2022-08-07T02:16:33.728Z,11.07
2022-08-07T02:21:18.566Z,10.97
2022-08-07T02:26:31.144Z,15.05
2022-08-07T02:31:19.008Z,13.47
2022-08-07T02:36:28.754Z,12.60
2022-08-07T02:41:21.573Z,11.90
2022-08-07T02:46:07.120Z,13.03
2022-08-07T02:50:54.037Z,12.40
2022-08-07T02:56:04.469Z,14.30
2022-08-07T03:00:52.700Z,12.27
2022-08-07T03:05:38.148Z,13.90
2022-08-07T03:10:23.532Z,13.27
2022-08-07T03:15:10.181Z,13.20
2022-08-07T03:19:56.236Z,13.33
2022-08-07T03:24:39.764Z,12.83
2022-08-07T03:29:27.560Z,12.90
2022-08-07T03:34:18.817Z,11.60
2022-08-07T03:39:09.089Z,11.63
2022-08-07T03:43:57.222Z,10.47
2022-08-07T03:49:01.938Z,10.73
2022-08-07T03:54:01.945Z,12.53
2022-08-07T03:59:08.599Z,9.90
2022-08-07T04:03:55.706Z,10.37
2022-08-07T04:08:41.838Z,10.40
2022-08-07T04:13:28.326Z,9.33
2022-08-07T04:18:59.198Z,9.30
2022-08-07T04:23:43.774Z,8.23
2022-08-07T04:28:42.452Z,8.60
2022-08-07T04:33:26.859Z,9.93
2022-08-07T04:38:13.467Z,8.53
2022-08-07T04:43:01.306Z,9.97
2022-08-07T04:48:04.031Z,8.27
2022-08-07T04:53:00.791Z,7.47
2022-08-07T04:58:24.302Z,8.53
2022-08-07T05:03:17.145Z,9.10
2022-08-07T05:08:19.483Z,9.83
2022-08-07T05:14:54.447Z,7.07
2022-08-07T05:18:37.637Z,7.47
2022-08-07T05:23:30.090Z,8.33
2022-08-07T05:28:22.698Z,7.80
2022-08-07T05:33:07.751Z,8.73
2022-08-07T05:38:08.687Z,9.13
2022-08-07T05:42:55.786Z,7.27
2022-08-07T05:48:01.690Z,7.90
2022-08-07T05:52:44.610Z,8.68
2022-08-07T05:57:34.614Z,9.55
2022-08-07T06:02:29.112Z,9.20
2022-08-07T06:07:23.097Z,8.38
2022-08-07T06:12:17.123Z,7.88
2022-08-07T06:17:08.599Z,7.00
2022-08-07T06:22:14.392Z,7.60
2022-08-07T06:26:56.626Z,7.68
2022-08-07T06:31:49.860Z,8.07
2022-08-07T06:36:35.803Z,8.20
2022-08-07T06:42:02.566Z,8.10
2022-08-07T06:46:31.451Z,6.63
2022-08-07T06:51:31.237Z,7.68
2022-08-07T06:56:49.533Z,6.82
2022-08-07T07:01:42.102Z,6.95
2022-08-07T07:06:33.078Z,6.70
2022-08-07T07:12:08.519Z,9.32
2022-08-07T07:16:30.798Z,7.50
2022-08-07T07:21:19.848Z,10.15
2022-08-07T07:26:32.564Z,7.90
2022-08-07T07:31:21.635Z,10.07
2022-08-07T07:36:12.856Z,8.57
2022-08-07T07:41:02.382Z,7.25
2022-08-07T07:46:38.102Z,7.00
2022-08-07T07:50:55.552Z,6.07
2022-08-07T07:55:45.728Z,7.68
2022-08-07T08:00:39.934Z,6.68
2022-08-07T08:05:42.994Z,6.68
2022-08-07T08:10:37.654Z,6.47
2022-08-07T08:15:23.294Z,8.68
2022-08-07T08:20:17.056Z,8.13
2022-08-07T08:25:42.250Z,8.07
2022-08-07T08:30:37.396Z,8.75
2022-08-07T08:35:25.035Z,7.90
2022-08-07T08:40:23.390Z,6.60
2022-08-07T08:45:18.074Z,7.32
2022-08-07T08:50:15.140Z,9.00
2022-08-07T08:55:07.834Z,8.35
2022-08-07T08:59:58.365Z,6.57
2022-08-07T09:04:48.610Z,7.13
2022-08-07T09:09:57.119Z,6.78
2022-08-07T09:14:50.576Z,5.88
2022-08-07T09:19:55.148Z,5.10
2022-08-07T09:25:00.859Z,5.10
2022-08-07T09:30:04.214Z,7.10
2022-08-07T09:35:04.802Z,6.88
2022-08-07T09:40:17.943Z,9.98
2022-08-07T09:47:20.398Z,7.22
2022-08-07T09:50:24.056Z,5.88
2022-08-07T09:55:29.936Z,7.35
2022-08-07T10:00:31.822Z,5.15
2022-08-07T10:06:00.725Z,7.38
2022-08-07T10:16:14.910Z,9.82
2022-08-07T10:21:50.482Z,5.18
2022-08-07T10:26:44.224Z,4.28
2022-08-07T10:31:50.574Z,4.40
2022-08-07T10:36:49.499Z,5.22
2022-08-07T10:41:52.393Z,4.72
2022-08-07T10:46:44.081Z,5.30
2022-08-07T10:51:57.281Z,4.28
2022-08-07T10:56:50.818Z,4.80
2022-08-07T11:01:51.989Z,18.23
2022-08-07T11:06:55.308Z,4.35
2022-08-07T11:11:45.058Z,3.67
2022-08-07T11:16:48.050Z,4.28
2022-08-07T11:21:44.166Z,3.20
2022-08-07T11:26:38.687Z,3.15
2022-08-07T11:31:40.575Z,4.40
2022-08-07T11:36:42.282Z,3.25
2022-08-07T11:42:01.813Z,5.95
2022-08-07T11:46:50.166Z,19.13
2022-08-07T11:51:48.918Z,4.78
2022-08-07T11:56:56.254Z,6.00
2022-08-07T12:01:59.679Z,4.22
2022-08-07T12:07:00.342Z,4.85
2022-08-07T12:12:10.013Z,3.47
2022-08-07T12:17:00.744Z,4.53
2022-08-07T12:22:38.466Z,3.28
2022-08-07T12:27:13.296Z,6.40
2022-08-07T12:32:13.854Z,3.67
2022-08-07T12:37:00.551Z,4.85
2022-08-07T12:41:51.358Z,3.10
2022-08-07T12:46:52.287Z,4.40
2022-08-07T12:51:51.105Z,3.75
2022-08-07T12:56:55.231Z,3.22
2022-08-07T13:02:00.128Z,3.13
2022-08-07T13:07:04.413Z,4.55
2022-08-07T13:12:00.959Z,5.68
2022-08-07T13:16:54.348Z,3.95
2022-08-07T13:21:57.577Z,4.18
2022-08-07T13:26:50.851Z,3.22
2022-08-07T13:31:55.043Z,5.47
2022-08-07T13:36:44.834Z,3.15
2022-08-07T13:41:41.343Z,3.83
2022-08-07T13:46:37.594Z,5.13
2022-08-07T13:52:22.186Z,2.90
2022-08-07T13:56:40.830Z,5.60
2022-08-07T14:01:51.524Z,3.90
2022-08-07T14:06:46.234Z,4.00
2022-08-07T14:12:00.459Z,3.92
2022-08-07T14:16:50.462Z,4.47
2022-08-07T14:22:03.172Z,5.45
2022-08-07T14:26:52.145Z,3.65
2022-08-07T14:31:42.833Z,2.83
2022-08-07T14:36:39.508Z,7.10
2022-08-07T14:41:34.003Z,6.03
2022-08-07T14:46:34.564Z,3.15
2022-08-07T14:51:23.867Z,5.38
2022-08-07T14:56:13.081Z,2.88
2022-08-07T15:00:59.184Z,5.38
2022-08-07T15:05:55.054Z,4.82
2022-08-07T15:15:58.051Z,5.05
2022-08-07T15:21:03.895Z,9.60
2022-08-07T15:25:56.980Z,4.95
2022-08-07T15:31:05.071Z,14.00
2022-08-07T15:41:23.915Z,3.42
2022-08-07T15:46:37.262Z,3.50
2022-08-07T15:56:35.888Z,4.05
2022-08-07T16:01:23.877Z,3.53
2022-08-07T16:06:34.146Z,6.13
2022-08-07T16:11:39.869Z,3.63
2022-08-07T16:16:58.443Z,2.92
2022-08-07T16:22:05.580Z,3.45
2022-08-07T16:27:04.763Z,3.05
2022-08-07T16:32:05.175Z,3.13
2022-08-07T16:38:05.902Z,2.53
2022-08-07T16:42:46.812Z,11.32
2022-08-07T16:47:57.290Z,6.72
2022-08-07T16:53:09.820Z,3.50
2022-08-07T16:58:04.351Z,3.28
2022-08-07T17:03:58.607Z,3.08
2022-08-07T17:09:10.448Z,4.30
2022-08-07T17:14:18.044Z,8.50
2022-08-07T17:19:15.476Z,5.07
2022-08-07T17:24:23.712Z,5.45
2022-08-07T17:30:12.358Z,3.72
2022-08-07T17:34:34.490Z,5.38
2022-08-07T17:39:58.486Z,5.95
2022-08-07T17:44:45.555Z,11.07
2022-08-07T17:49:44.724Z,5.43
2022-08-07T17:54:39.847Z,4.07
2022-08-07T17:59:44.941Z,3.25
2022-08-07T18:04:46.361Z,3.88
2022-08-07T18:10:04.380Z,3.45
2022-08-07T18:14:46.656Z,5.78
2022-08-07T18:21:02.844Z,6.65
2022-08-07T18:24:52.611Z,5.72
2022-08-07T18:30:05.887Z,3.72
2022-08-07T18:35:03.658Z,4.53
2022-08-07T18:40:18.255Z,5.03
2022-08-07T18:45:45.076Z,4.68
2022-08-07T18:51:14.895Z,3.85
2022-08-07T18:56:15.645Z,5.18
2022-08-07T19:02:17.546Z,11.20
2022-08-07T19:06:33.800Z,8.75
2022-08-07T19:11:35.673Z,9.40
2022-08-07T19:17:01.227Z,9.40
2022-08-07T19:21:53.410Z,6.53
2022-08-07T19:28:28.612Z,6.65
2022-08-07T19:32:18.852Z,5.32
2022-08-07T19:37:09.621Z,4.63
2022-08-07T19:42:08.273Z,6.85
2022-08-07T19:47:10.968Z,5.30
2022-08-07T19:52:00.585Z,5.53
2022-08-07T19:58:00.227Z,7.27
2022-08-07T20:01:58.990Z,7.57
2022-08-07T20:06:43.892Z,6.20
2022-08-07T20:12:22.597Z,6.47
2022-08-07T20:16:36.932Z,4.35
2022-08-07T20:21:23.019Z,9.23
2022-08-07T20:26:20.426Z,9.15
2022-08-07T20:31:21.819Z,6.57
2022-08-07T20:36:08.349Z,8.93
2022-08-07T20:40:57.932Z,6.63
2022-08-07T20:46:28.720Z,6.17
2022-08-07T20:50:48.449Z,8.13
2022-08-07T20:55:35.931Z,8.73
2022-08-07T21:00:24.617Z,8.40
2022-08-07T21:05:16.577Z,10.47
2022-08-07T21:10:01.431Z,6.77
2022-08-07T21:14:48.217Z,6.77
2022-08-07T21:19:51.616Z,8.23
2022-08-07T21:24:56.860Z,8.43
2022-08-07T21:29:53.190Z,7.33
2022-08-07T21:34:48.433Z,5.93
2022-08-07T21:39:46.853Z,6.53
2022-08-07T21:44:43.576Z,5.90
2022-08-07T21:50:02.129Z,6.00
2022-08-07T21:54:56.917Z,5.47
2022-08-07T22:00:03.952Z,7.07
2022-08-07T22:04:54.210Z,6.43
2022-08-07T22:09:55.040Z,5.73
2022-08-07T22:15:00.108Z,5.67
2022-08-07T22:20:02.616Z,9.23
2022-08-07T22:24:56.796Z,5.03
2022-08-07T22:29:50.449Z,6.00
2022-08-07T22:34:53.173Z,7.27
2022-08-07T22:39:52.880Z,6.50
2022-08-07T22:44:58.602Z,10.30
2022-08-07T22:49:59.629Z,6.10
2022-08-07T22:55:22.836Z,9.23
2022-08-07T23:00:16.290Z,7.80
2022-08-07T23:06:09.714Z,7.93
2022-08-07T23:11:10.341Z,9.20
2022-08-07T23:16:44.668Z,7.93
2022-08-07T23:21:29.879Z,7.27
2022-08-07T23:26:23.377Z,6.27
2022-08-07T23:32:48.871Z,6.50
2022-08-07T23:36:37.763Z,7.77
2022-08-07T23:41:47.744Z,6.43
2022-08-07T23:47:00.715Z,6.97
2022-08-07T23:53:05.181Z,8.33
2022-08-07T23:56:59.754Z,8.03
